sensor_id;sensor_type;location;lat;lon;timestamp;temperature;humidity
14140;DHT22;7150;53.514;9.988;2023-08-24T00:00:30;21.80;99.90
14140;DHT22;7150;53.514;9.988;2023-08-24T00:02:57;21.80;99.90
14140;DHT22;7150;53.514;9.988;2023-08-24T00:05:23;21.80;99.90
14140;DHT22;7150;53.514;9.988;2023-08-24T00:07:49;21.80;99.90
14140;DHT22;7150;53.514;9.988;2023-08-24T00:10:15;21.80;99.90
14140;DHT22;7150;53.514;9.988;2023-08-24T00:12:40;21.80;99.90
14140;DHT22;7150;53.514;9.988;2023-08-24T00:15:08;21.80;99.90
14140;DHT22;7150;53.514;9.988;2023-08-24T00:17:34;21.80;99.90
14140;DHT22;7150;53.514;9.988;2023-08-24T00:20:00;21.80;99.90
14140;DHT22;7150;53.514;9.988;2023-08-24T00:22:29;21.70;99.90
14140;DHT22;7150;53.514;9.988;2023-08-24T00:24:54;21.70;99.90
14140;DHT22;7150;53.514;9.988;2023-08-24T00:27:20;21.70;99.90
14140;DHT22;7150;53.514;9.988;2023-08-24T00:29:45;21.70;99.90
14140;DHT22;7150;53.514;9.988;2023-08-24T00:32:11;21.70;99.90
14140;DHT22;7150;53.514;9.988;2023-08-24T00:34:36;21.70;99.90
14140;DHT22;7150;53.514;9.988;2023-08-24T00:37:02;21.70;99.90
14140;DHT22;7150;53.514;9.988;2023-08-24T00:39:27;21.70;99.90
14140;DHT22;7150;53.514;9.988;2023-08-24T00:41:53;21.70;99.90
14140;DHT22;7150;53.514;9.988;2023-08-24T00:44:19;21.70;99.90
14140;DHT22;7150;53.514;9.988;2023-08-24T00:46:45;21.60;99.90
14140;DHT22;7150;53.514;9.988;2023-08-24T00:49:11;21.60;99.90
14140;DHT22;7150;53.514;9.988;2023-08-24T00:51:37;21.60;99.90
14140;DHT22;7150;53.514;9.988;2023-08-24T00:54:03;21.60;99.90
14140;DHT22;7150;53.514;9.988;2023-08-24T00:56:30;21.60;99.90
14140;DHT22;7150;53.514;9.988;2023-08-24T00:58:56;21.60;99.90
14140;DHT22;7150;53.514;9.988;2023-08-24T01:01:22;21.60;99.90
14140;DHT22;7150;53.514;9.988;2023-08-24T01:03:49;21.70;99.90
14140;DHT22;7150;53.514;9.988;2023-08-24T01:06:15;21.70;99.90
14140;DHT22;7150;53.514;9.988;2023-08-24T01:08:40;21.60;99.90
14140;DHT22;7150;53.514;9.988;2023-08-24T01:14:58;21.60;99.90
14140;DHT22;7150;53.514;9.988;2023-08-24T01:17:05;21.60;99.90
14140;DHT22;7150;53.514;9.988;2023-08-24T01:19:43;21.50;99.90
14140;DHT22;7150;53.514;9.988;2023-08-24T01:27:35;21.50;99.90
14140;DHT22;7150;53.514;9.988;2023-08-24T01:30:03;21.50;99.90
14140;DHT22;7150;53.514;9.988;2023-08-24T01:32:31;21.50;99.90
14140;DHT22;7150;53.514;9.988;2023-08-24T01:34:58;21.40;99.90
14140;DHT22;7150;53.514;9.988;2023-08-24T01:37:23;21.50;99.90
14140;DHT22;7150;53.514;9.988;2023-08-24T01:40:07;21.50;99.90
14140;DHT22;7150;53.514;9.988;2023-08-24T01:42:37;21.50;99.90
14140;DHT22;7150;53.514;9.988;2023-08-24T01:45:08;21.50;99.90
14140;DHT22;7150;53.514;9.988;2023-08-24T01:47:36;21.40;99.90
14140;DHT22;7150;53.514;9.988;2023-08-24T01:50:03;21.40;99.90
14140;DHT22;7150;53.514;9.988;2023-08-24T01:52:30;21.40;99.90
14140;DHT22;7150;53.514;9.988;2023-08-24T01:54:56;21.40;99.90
14140;DHT22;7150;53.514;9.988;2023-08-24T01:57:22;21.40;99.90
14140;DHT22;7150;53.514;9.988;2023-08-24T01:59:47;21.30;99.90
14140;DHT22;7150;53.514;9.988;2023-08-24T02:02:13;21.30;99.90
14140;DHT22;7150;53.514;9.988;2023-08-24T02:04:38;21.30;99.90
14140;DHT22;7150;53.514;9.988;2023-08-24T02:07:04;21.30;99.90
14140;DHT22;7150;53.514;9.988;2023-08-24T02:09:29;21.30;99.90
14140;DHT22;7150;53.514;9.988;2023-08-24T02:11:56;21.30;99.90
14140;DHT22;7150;53.514;9.988;2023-08-24T02:14:21;21.20;99.90
14140;DHT22;7150;53.514;9.988;2023-08-24T02:16:47;21.20;99.90
14140;DHT22;7150;53.514;9.988;2023-08-24T02:19:12;21.20;99.90
14140;DHT22;7150;53.514;9.988;2023-08-24T02:21:38;21.20;99.90
14140;DHT22;7150;53.514;9.988;2023-08-24T02:24:04;21.20;99.90
14140;DHT22;7150;53.514;9.988;2023-08-24T02:26:30;21.20;99.90
14140;DHT22;7150;53.514;9.988;2023-08-24T02:28:57;21.20;99.90
14140;DHT22;7150;53.514;9.988;2023-08-24T02:31:22;21.20;99.90
14140;DHT22;7150;53.514;9.988;2023-08-24T02:33:48;21.10;99.90
14140;DHT22;7150;53.514;9.988;2023-08-24T02:36:14;21.10;99.90
14140;DHT22;7150;53.514;9.988;2023-08-24T02:38:40;21.10;99.90
14140;DHT22;7150;53.514;9.988;2023-08-24T02:41:06;21.10;99.90
14140;DHT22;7150;53.514;9.988;2023-08-24T02:43:32;21.10;99.90
14140;DHT22;7150;53.514;9.988;2023-08-24T02:46:06;21.10;99.90
14140;DHT22;7150;53.514;9.988;2023-08-24T02:48:32;21.20;99.90
14140;DHT22;7150;53.514;9.988;2023-08-24T02:50:58;21.20;99.90
14140;DHT22;7150;53.514;9.988;2023-08-24T02:53:25;21.20;99.90
14140;DHT22;7150;53.514;9.988;2023-08-24T02:55:51;21.20;99.90
14140;DHT22;7150;53.514;9.988;2023-08-24T02:58:16;21.20;99.90
14140;DHT22;7150;53.514;9.988;2023-08-24T03:00:42;21.20;99.90
14140;DHT22;7150;53.514;9.988;2023-08-24T03:03:07;21.10;99.90
14140;DHT22;7150;53.514;9.988;2023-08-24T03:05:33;21.10;99.90
14140;DHT22;7150;53.514;9.988;2023-08-24T03:07:59;21.10;99.90
14140;DHT22;7150;53.514;9.988;2023-08-24T03:10:24;21.00;99.90
14140;DHT22;7150;53.514;9.988;2023-08-24T03:12:50;21.00;99.90
14140;DHT22;7150;53.514;9.988;2023-08-24T03:15:16;21.00;99.90
14140;DHT22;7150;53.514;9.988;2023-08-24T03:17:41;21.00;99.90
14140;DHT22;7150;53.514;9.988;2023-08-24T03:20:08;21.00;99.90
14140;DHT22;7150;53.514;9.988;2023-08-24T03:22:34;21.00;99.90
14140;DHT22;7150;53.514;9.988;2023-08-24T03:24:59;21.00;99.90
14140;DHT22;7150;53.514;9.988;2023-08-24T03:27:25;21.00;99.90
14140;DHT22;7150;53.514;9.988;2023-08-24T03:29:53;21.00;99.90
14140;DHT22;7150;53.514;9.988;2023-08-24T03:32:18;21.00;99.90
14140;DHT22;7150;53.514;9.988;2023-08-24T03:34:44;20.90;99.90
14140;DHT22;7150;53.514;9.988;2023-08-24T03:37:09;20.90;99.90
14140;DHT22;7150;53.514;9.988;2023-08-24T03:39:38;20.80;99.90
14140;DHT22;7150;53.514;9.988;2023-08-24T03:42:03;20.80;99.90
14140;DHT22;7150;53.514;9.988;2023-08-24T03:44:29;20.80;99.90
14140;DHT22;7150;53.514;9.988;2023-08-24T03:46:55;20.80;99.90
14140;DHT22;7150;53.514;9.988;2023-08-24T03:49:20;20.80;99.90
14140;DHT22;7150;53.514;9.988;2023-08-24T03:51:46;20.80;99.90
14140;DHT22;7150;53.514;9.988;2023-08-24T03:54:11;20.70;99.90
14140;DHT22;7150;53.514;9.988;2023-08-24T03:56:37;20.70;99.90
14140;DHT22;7150;53.514;9.988;2023-08-24T03:59:03;20.70;99.90
14140;DHT22;7150;53.514;9.988;2023-08-24T04:01:28;20.60;99.90
14140;DHT22;7150;53.514;9.988;2023-08-24T04:03:54;20.70;99.90
14140;DHT22;7150;53.514;9.988;2023-08-24T04:06:20;20.70;99.90
14140;DHT22;7150;53.514;9.988;2023-08-24T04:08:45;20.60;99.90
14140;DHT22;7150;53.514;9.988;2023-08-24T04:11:11;20.70;99.90
14140;DHT22;7150;53.514;9.988;2023-08-24T04:13:36;20.60;99.90
14140;DHT22;7150;53.514;9.988;2023-08-24T04:16:02;20.60;99.90
14140;DHT22;7150;53.514;9.988;2023-08-24T04:18:29;20.60;99.90
14140;DHT22;7150;53.514;9.988;2023-08-24T04:20:54;20.60;99.90
14140;DHT22;7150;53.514;9.988;2023-08-24T04:23:24;20.60;99.90
14140;DHT22;7150;53.514;9.988;2023-08-24T04:25:50;20.60;99.90
14140;DHT22;7150;53.514;9.988;2023-08-24T04:28:16;20.60;99.90
14140;DHT22;7150;53.514;9.988;2023-08-24T04:30:54;20.60;99.90
14140;DHT22;7150;53.514;9.988;2023-08-24T04:33:21;20.60;99.90
14140;DHT22;7150;53.514;9.988;2023-08-24T04:35:47;20.60;99.90
14140;DHT22;7150;53.514;9.988;2023-08-24T04:38:13;20.60;99.90
14140;DHT22;7150;53.514;9.988;2023-08-24T04:40:49;20.60;99.90
14140;DHT22;7150;53.514;9.988;2023-08-24T04:43:15;20.60;99.90
14140;DHT22;7150;53.514;9.988;2023-08-24T04:45:41;20.60;99.90
14140;DHT22;7150;53.514;9.988;2023-08-24T04:48:06;20.60;99.90
14140;DHT22;7150;53.514;9.988;2023-08-24T04:50:32;20.70;99.90
14140;DHT22;7150;53.514;9.988;2023-08-24T04:52:57;20.70;99.90
14140;DHT22;7150;53.514;9.988;2023-08-24T04:55:23;20.70;99.90
14140;DHT22;7150;53.514;9.988;2023-08-24T04:57:48;20.70;99.90
14140;DHT22;7150;53.514;9.988;2023-08-24T05:00:14;20.70;99.90
14140;DHT22;7150;53.514;9.988;2023-08-24T05:02:42;20.60;99.90
14140;DHT22;7150;53.514;9.988;2023-08-24T05:05:08;20.60;99.90
14140;DHT22;7150;53.514;9.988;2023-08-24T05:07:36;20.60;99.90
14140;DHT22;7150;53.514;9.988;2023-08-24T05:10:02;20.50;99.90
14140;DHT22;7150;53.514;9.988;2023-08-24T05:12:28;20.50;99.90
14140;DHT22;7150;53.514;9.988;2023-08-24T05:14:54;20.40;99.90
14140;DHT22;7150;53.514;9.988;2023-08-24T05:17:20;20.40;99.90
14140;DHT22;7150;53.514;9.988;2023-08-24T05:19:50;20.30;99.90
14140;DHT22;7150;53.514;9.988;2023-08-24T05:22:16;20.30;99.90
14140;DHT22;7150;53.514;9.988;2023-08-24T05:24:41;20.30;99.90
14140;DHT22;7150;53.514;9.988;2023-08-24T05:27:07;20.30;99.90
14140;DHT22;7150;53.514;9.988;2023-08-24T05:29:32;20.30;99.90
14140;DHT22;7150;53.514;9.988;2023-08-24T05:31:59;20.30;99.90
14140;DHT22;7150;53.514;9.988;2023-08-24T05:34:24;20.30;99.90
14140;DHT22;7150;53.514;9.988;2023-08-24T05:36:50;20.30;99.90
14140;DHT22;7150;53.514;9.988;2023-08-24T05:39:16;20.30;99.90
14140;DHT22;7150;53.514;9.988;2023-08-24T05:41:41;20.20;99.90
14140;DHT22;7150;53.514;9.988;2023-08-24T05:44:07;20.20;99.90
14140;DHT22;7150;53.514;9.988;2023-08-24T05:46:32;20.30;99.90
14140;DHT22;7150;53.514;9.988;2023-08-24T05:48:58;20.30;99.90
14140;DHT22;7150;53.514;9.988;2023-08-24T05:51:27;20.30;99.90
14140;DHT22;7150;53.514;9.988;2023-08-24T05:53:53;20.40;99.90
14140;DHT22;7150;53.514;9.988;2023-08-24T05:56:24;20.40;99.90
14140;DHT22;7150;53.514;9.988;2023-08-24T05:58:50;20.40;99.90
14140;DHT22;7150;53.514;9.988;2023-08-24T06:01:15;20.50;99.90
14140;DHT22;7150;53.514;9.988;2023-08-24T06:03:41;20.50;99.90
14140;DHT22;7150;53.514;9.988;2023-08-24T06:06:06;20.50;99.90
14140;DHT22;7150;53.514;9.988;2023-08-24T06:08:34;20.50;99.90
14140;DHT22;7150;53.514;9.988;2023-08-24T06:10:59;20.50;99.90
14140;DHT22;7150;53.514;9.988;2023-08-24T06:13:25;20.50;99.90
14140;DHT22;7150;53.514;9.988;2023-08-24T06:15:51;20.40;99.90
14140;DHT22;7150;53.514;9.988;2023-08-24T06:18:16;20.50;99.90
14140;DHT22;7150;53.514;9.988;2023-08-24T06:20:41;20.40;99.90
14140;DHT22;7150;53.514;9.988;2023-08-24T06:23:07;20.50;99.90
14140;DHT22;7150;53.514;9.988;2023-08-24T06:25:33;20.50;99.90
14140;DHT22;7150;53.514;9.988;2023-08-24T06:27:58;20.60;99.90
14140;DHT22;7150;53.514;9.988;2023-08-24T06:30:25;20.60;99.90
14140;DHT22;7150;53.514;9.988;2023-08-24T06:32:50;20.60;99.90
14140;DHT22;7150;53.514;9.988;2023-08-24T06:35:16;20.60;99.90
14140;DHT22;7150;53.514;9.988;2023-08-24T06:37:42;20.60;99.90
14140;DHT22;7150;53.514;9.988;2023-08-24T06:40:08;20.60;99.90
14140;DHT22;7150;53.514;9.988;2023-08-24T06:42:34;20.60;99.90
14140;DHT22;7150;53.514;9.988;2023-08-24T06:45:00;20.60;99.90
14140;DHT22;7150;53.514;9.988;2023-08-24T06:47:25;20.70;99.90
14140;DHT22;7150;53.514;9.988;2023-08-24T06:49:51;20.70;99.90
14140;DHT22;7150;53.514;9.988;2023-08-24T06:52:16;20.70;99.90
14140;DHT22;7150;53.514;9.988;2023-08-24T06:54:42;20.70;99.90
14140;DHT22;7150;53.514;9.988;2023-08-24T06:57:07;20.80;99.90
14140;DHT22;7150;53.514;9.988;2023-08-24T06:59:33;20.80;99.90
14140;DHT22;7150;53.514;9.988;2023-08-24T07:01:58;20.80;99.90
14140;DHT22;7150;53.514;9.988;2023-08-24T07:04:26;20.80;99.90
14140;DHT22;7150;53.514;9.988;2023-08-24T07:06:52;20.90;99.90
14140;DHT22;7150;53.514;9.988;2023-08-24T07:09:18;20.90;99.90
14140;DHT22;7150;53.514;9.988;2023-08-24T07:11:44;20.90;99.90
14140;DHT22;7150;53.514;9.988;2023-08-24T07:14:09;20.90;99.90
14140;DHT22;7150;53.514;9.988;2023-08-24T07:16:35;20.90;99.90
14140;DHT22;7150;53.514;9.988;2023-08-24T07:19:00;21.00;99.90
14140;DHT22;7150;53.514;9.988;2023-08-24T07:21:26;21.00;99.90
14140;DHT22;7150;53.514;9.988;2023-08-24T07:23:51;21.00;99.90
14140;DHT22;7150;53.514;9.988;2023-08-24T07:26:17;21.00;99.90
14140;DHT22;7150;53.514;9.988;2023-08-24T07:28:42;21.00;99.90
14140;DHT22;7150;53.514;9.988;2023-08-24T07:31:09;21.10;99.90
14140;DHT22;7150;53.514;9.988;2023-08-24T07:33:36;21.10;99.90
14140;DHT22;7150;53.514;9.988;2023-08-24T07:36:02;21.10;99.90
14140;DHT22;7150;53.514;9.988;2023-08-24T07:38:29;21.10;99.90
14140;DHT22;7150;53.514;9.988;2023-08-24T07:40:55;21.20;99.90
14140;DHT22;7150;53.514;9.988;2023-08-24T07:43:20;21.20;99.90
14140;DHT22;7150;53.514;9.988;2023-08-24T07:45:46;21.20;99.90
14140;DHT22;7150;53.514;9.988;2023-08-24T07:48:11;21.20;99.90
14140;DHT22;7150;53.514;9.988;2023-08-24T07:50:37;21.30;99.90
14140;DHT22;7150;53.514;9.988;2023-08-24T07:53:02;21.30;99.90
14140;DHT22;7150;53.514;9.988;2023-08-24T07:55:28;21.30;99.90
14140;DHT22;7150;53.514;9.988;2023-08-24T07:57:54;21.30;99.90
14140;DHT22;7150;53.514;9.988;2023-08-24T08:00:19;21.40;99.90
14140;DHT22;7150;53.514;9.988;2023-08-24T08:02:45;21.40;99.90
14140;DHT22;7150;53.514;9.988;2023-08-24T08:05:10;21.40;99.90
14140;DHT22;7150;53.514;9.988;2023-08-24T08:07:36;21.40;99.90
14140;DHT22;7150;53.514;9.988;2023-08-24T08:10:03;21.40;99.90
14140;DHT22;7150;53.514;9.988;2023-08-24T08:12:29;21.50;99.90
14140;DHT22;7150;53.514;9.988;2023-08-24T08:14:57;21.50;99.90
14140;DHT22;7150;53.514;9.988;2023-08-24T08:17:23;21.50;99.90
14140;DHT22;7150;53.514;9.988;2023-08-24T08:19:48;21.50;99.90
14140;DHT22;7150;53.514;9.988;2023-08-24T08:22:14;21.50;99.90
14140;DHT22;7150;53.514;9.988;2023-08-24T08:24:39;21.50;99.90
14140;DHT22;7150;53.514;9.988;2023-08-24T08:27:05;21.50;99.90
14140;DHT22;7150;53.514;9.988;2023-08-24T08:29:30;21.50;99.90
14140;DHT22;7150;53.514;9.988;2023-08-24T08:31:56;21.50;99.90
14140;DHT22;7150;53.514;9.988;2023-08-24T08:34:22;21.50;99.90
14140;DHT22;7150;53.514;9.988;2023-08-24T08:36:47;21.50;99.90
14140;DHT22;7150;53.514;9.988;2023-08-24T08:39:13;21.50;99.90
14140;DHT22;7150;53.514;9.988;2023-08-24T08:41:42;21.60;99.90
14140;DHT22;7150;53.514;9.988;2023-08-24T08:44:11;21.60;99.90
14140;DHT22;7150;53.514;9.988;2023-08-24T08:46:39;21.60;99.90
14140;DHT22;7150;53.514;9.988;2023-08-24T08:49:06;21.60;99.90
14140;DHT22;7150;53.514;9.988;2023-08-24T08:51:32;21.70;99.90
14140;DHT22;7150;53.514;9.988;2023-08-24T08:53:58;21.70;99.90
14140;DHT22;7150;53.514;9.988;2023-08-24T08:56:24;21.70;99.90
14140;DHT22;7150;53.514;9.988;2023-08-24T08:58:49;21.70;99.90
14140;DHT22;7150;53.514;9.988;2023-08-24T09:01:16;21.80;99.90
14140;DHT22;7150;53.514;9.988;2023-08-24T09:03:42;21.70;99.90
14140;DHT22;7150;53.514;9.988;2023-08-24T09:06:09;21.80;99.90
14140;DHT22;7150;53.514;9.988;2023-08-24T09:08:35;21.80;99.90
14140;DHT22;7150;53.514;9.988;2023-08-24T09:11:01;21.80;99.90
14140;DHT22;7150;53.514;9.988;2023-08-24T09:13:28;21.90;99.90
14140;DHT22;7150;53.514;9.988;2023-08-24T09:15:53;21.90;99.90
14140;DHT22;7150;53.514;9.988;2023-08-24T09:18:19;22.00;99.90
14140;DHT22;7150;53.514;9.988;2023-08-24T09:20:47;21.90;99.90
14140;DHT22;7150;53.514;9.988;2023-08-24T09:23:17;21.90;99.90
14140;DHT22;7150;53.514;9.988;2023-08-24T09:25:46;22.00;99.90
14140;DHT22;7150;53.514;9.988;2023-08-24T09:28:22;22.00;99.90
14140;DHT22;7150;53.514;9.988;2023-08-24T09:30:52;22.10;99.90
14140;DHT22;7150;53.514;9.988;2023-08-24T09:33:18;22.10;99.90
14140;DHT22;7150;53.514;9.988;2023-08-24T09:35:44;22.10;99.90
14140;DHT22;7150;53.514;9.988;2023-08-24T09:38:19;22.10;99.90
14140;DHT22;7150;53.514;9.988;2023-08-24T09:40:51;22.20;99.90
14140;DHT22;7150;53.514;9.988;2023-08-24T09:43:17;22.20;99.90
14140;DHT22;7150;53.514;9.988;2023-08-24T09:45:58;22.20;99.90
14140;DHT22;7150;53.514;9.988;2023-08-24T09:48:24;22.30;99.90
14140;DHT22;7150;53.514;9.988;2023-08-24T09:50:51;22.30;99.90
14140;DHT22;7150;53.514;9.988;2023-08-24T09:53:20;22.30;99.90
14140;DHT22;7150;53.514;9.988;2023-08-24T09:55:59;22.30;99.90
14140;DHT22;7150;53.514;9.988;2023-08-24T09:58:25;22.30;99.90
14140;DHT22;7150;53.514;9.988;2023-08-24T10:00:52;22.30;99.90
14140;DHT22;7150;53.514;9.988;2023-08-24T10:03:25;22.40;99.90
14140;DHT22;7150;53.514;9.988;2023-08-24T10:05:56;22.40;99.90
14140;DHT22;7150;53.514;9.988;2023-08-24T10:08:47;22.40;99.90
14140;DHT22;7150;53.514;9.988;2023-08-24T10:11:18;22.50;99.90
14140;DHT22;7150;53.514;9.988;2023-08-24T10:13:56;22.50;99.90
14140;DHT22;7150;53.514;9.988;2023-08-24T10:16:24;22.60;99.90
14140;DHT22;7150;53.514;9.988;2023-08-24T10:18:50;22.60;99.90
14140;DHT22;7150;53.514;9.988;2023-08-24T10:21:17;22.60;99.90
14140;DHT22;7150;53.514;9.988;2023-08-24T10:23:45;22.70;99.90
14140;DHT22;7150;53.514;9.988;2023-08-24T10:26:12;22.80;99.90
14140;DHT22;7150;53.514;9.988;2023-08-24T10:28:39;22.80;99.90
14140;DHT22;7150;53.514;9.988;2023-08-24T10:31:05;22.90;99.90
14140;DHT22;7150;53.514;9.988;2023-08-24T10:33:32;23.00;99.90
14140;DHT22;7150;53.514;9.988;2023-08-24T10:35:59;22.90;99.90
14140;DHT22;7150;53.514;9.988;2023-08-24T10:38:28;22.90;99.90
14140;DHT22;7150;53.514;9.988;2023-08-24T10:40:55;22.90;99.90
14140;DHT22;7150;53.514;9.988;2023-08-24T10:43:26;22.90;99.90
14140;DHT22;7150;53.514;9.988;2023-08-24T10:46:00;22.90;99.90
14140;DHT22;7150;53.514;9.988;2023-08-24T10:48:28;22.90;99.90
14140;DHT22;7150;53.514;9.988;2023-08-24T10:53:38;22.90;99.90
14140;DHT22;7150;53.514;9.988;2023-08-24T10:56:15;22.90;99.90
14140;DHT22;7150;53.514;9.988;2023-08-24T10:58:41;23.00;99.90
14140;DHT22;7150;53.514;9.988;2023-08-24T11:01:13;23.00;99.90
14140;DHT22;7150;53.514;9.988;2023-08-24T11:03:39;23.00;99.90
14140;DHT22;7150;53.514;9.988;2023-08-24T11:06:18;23.10;99.90
14140;DHT22;7150;53.514;9.988;2023-08-24T11:08:44;23.20;99.90
14140;DHT22;7150;53.514;9.988;2023-08-24T11:11:23;23.20;99.90
14140;DHT22;7150;53.514;9.988;2023-08-24T11:14:13;23.30;99.90
14140;DHT22;7150;53.514;9.988;2023-08-24T11:16:39;23.40;99.90
14140;DHT22;7150;53.514;9.988;2023-08-24T11:19:06;23.40;99.90
14140;DHT22;7150;53.514;9.988;2023-08-24T11:21:33;23.40;99.90
14140;DHT22;7150;53.514;9.988;2023-08-24T11:24:00;23.50;99.90
14140;DHT22;7150;53.514;9.988;2023-08-24T11:26:25;23.60;99.90
14140;DHT22;7150;53.514;9.988;2023-08-24T11:28:54;23.60;99.90
14140;DHT22;7150;53.514;9.988;2023-08-24T11:31:20;23.70;99.90
14140;DHT22;7150;53.514;9.988;2023-08-24T11:33:46;23.70;99.90
14140;DHT22;7150;53.514;9.988;2023-08-24T11:36:12;23.70;99.90
14140;DHT22;7150;53.514;9.988;2023-08-24T11:38:42;23.80;99.90
14140;DHT22;7150;53.514;9.988;2023-08-24T11:41:15;23.80;99.90
14140;DHT22;7150;53.514;9.988;2023-08-24T11:43:45;23.80;99.90
14140;DHT22;7150;53.514;9.988;2023-08-24T11:46:11;23.80;99.90
14140;DHT22;7150;53.514;9.988;2023-08-24T11:48:38;23.80;99.90
14140;DHT22;7150;53.514;9.988;2023-08-24T11:51:08;23.80;99.90
14140;DHT22;7150;53.514;9.988;2023-08-24T11:53:44;23.90;99.90
14140;DHT22;7150;53.514;9.988;2023-08-24T11:56:11;23.90;99.90
14140;DHT22;7150;53.514;9.988;2023-08-24T11:58:38;23.90;99.90
14140;DHT22;7150;53.514;9.988;2023-08-24T12:01:05;23.90;99.90
14140;DHT22;7150;53.514;9.988;2023-08-24T12:03:31;24.00;99.90
14140;DHT22;7150;53.514;9.988;2023-08-24T12:06:10;24.00;99.90
14140;DHT22;7150;53.514;9.988;2023-08-24T12:08:41;24.10;99.90
14140;DHT22;7150;53.514;9.988;2023-08-24T12:13:43;24.20;99.90
14140;DHT22;7150;53.514;9.988;2023-08-24T12:16:10;24.20;99.90
14140;DHT22;7150;53.514;9.988;2023-08-24T12:18:49;24.30;99.90
14140;DHT22;7150;53.514;9.988;2023-08-24T12:21:16;24.30;99.90
14140;DHT22;7150;53.514;9.988;2023-08-24T12:23:41;24.30;99.90
14140;DHT22;7150;53.514;9.988;2023-08-24T12:26:07;24.30;99.90
14140;DHT22;7150;53.514;9.988;2023-08-24T12:28:33;24.30;99.90
14140;DHT22;7150;53.514;9.988;2023-08-24T12:30:59;24.40;99.90
14140;DHT22;7150;53.514;9.988;2023-08-24T12:33:30;24.40;99.90
14140;DHT22;7150;53.514;9.988;2023-08-24T12:35:56;24.50;99.90
14140;DHT22;7150;53.514;9.988;2023-08-24T12:38:23;24.60;99.90
14140;DHT22;7150;53.514;9.988;2023-08-24T12:40:49;24.70;99.90
14140;DHT22;7150;53.514;9.988;2023-08-24T12:43:15;24.80;99.90
14140;DHT22;7150;53.514;9.988;2023-08-24T12:45:41;24.90;99.90
14140;DHT22;7150;53.514;9.988;2023-08-24T12:48:07;24.90;99.90
14140;DHT22;7150;53.514;9.988;2023-08-24T12:50:33;24.90;99.90
14140;DHT22;7150;53.514;9.988;2023-08-24T12:52:59;25.00;99.90
14140;DHT22;7150;53.514;9.988;2023-08-24T12:55:28;25.00;99.90
14140;DHT22;7150;53.514;9.988;2023-08-24T12:57:54;25.00;99.90
14140;DHT22;7150;53.514;9.988;2023-08-24T13:00:20;25.00;99.90
14140;DHT22;7150;53.514;9.988;2023-08-24T13:02:48;25.00;99.90
14140;DHT22;7150;53.514;9.988;2023-08-24T13:05:13;25.10;99.90
14140;DHT22;7150;53.514;9.988;2023-08-24T13:07:39;25.10;99.90
14140;DHT22;7150;53.514;9.988;2023-08-24T13:10:05;25.10;99.90
14140;DHT22;7150;53.514;9.988;2023-08-24T13:12:32;25.10;99.90
14140;DHT22;7150;53.514;9.988;2023-08-24T13:14:57;25.10;99.90
14140;DHT22;7150;53.514;9.988;2023-08-24T13:17:23;25.10;99.90
14140;DHT22;7150;53.514;9.988;2023-08-24T13:19:48;25.10;99.90
14140;DHT22;7150;53.514;9.988;2023-08-24T13:22:15;25.10;99.90
14140;DHT22;7150;53.514;9.988;2023-08-24T13:24:41;25.10;99.90
14140;DHT22;7150;53.514;9.988;2023-08-24T13:27:08;25.20;99.90
14140;DHT22;7150;53.514;9.988;2023-08-24T13:29:39;25.20;99.90
14140;DHT22;7150;53.514;9.988;2023-08-24T13:32:05;25.20;99.90
14140;DHT22;7150;53.514;9.988;2023-08-24T13:34:31;25.20;99.90
14140;DHT22;7150;53.514;9.988;2023-08-24T13:36:57;25.20;99.90
14140;DHT22;7150;53.514;9.988;2023-08-24T13:39:25;25.20;99.90
14140;DHT22;7150;53.514;9.988;2023-08-24T13:41:50;25.20;99.90
14140;DHT22;7150;53.514;9.988;2023-08-24T13:44:16;25.20;99.90
14140;DHT22;7150;53.514;9.988;2023-08-24T13:46:41;25.20;99.90
14140;DHT22;7150;53.514;9.988;2023-08-24T13:49:07;25.10;99.90
14140;DHT22;7150;53.514;9.988;2023-08-24T13:51:34;25.10;99.90
14140;DHT22;7150;53.514;9.988;2023-08-24T13:53:59;25.10;99.90
14140;DHT22;7150;53.514;9.988;2023-08-24T13:56:25;25.10;99.90
14140;DHT22;7150;53.514;9.988;2023-08-24T13:58:50;25.10;99.90
14140;DHT22;7150;53.514;9.988;2023-08-24T14:01:15;25.00;99.90
14140;DHT22;7150;53.514;9.988;2023-08-24T14:03:41;25.00;99.90
14140;DHT22;7150;53.514;9.988;2023-08-24T14:06:08;25.00;99.90
14140;DHT22;7150;53.514;9.988;2023-08-24T14:08:34;25.00;99.90
14140;DHT22;7150;53.514;9.988;2023-08-24T14:10:59;25.00;99.90
14140;DHT22;7150;53.514;9.988;2023-08-24T14:13:25;25.00;99.90
14140;DHT22;7150;53.514;9.988;2023-08-24T14:15:51;25.00;99.90
14140;DHT22;7150;53.514;9.988;2023-08-24T14:18:16;25.00;99.90
14140;DHT22;7150;53.514;9.988;2023-08-24T14:20:45;25.00;99.90
14140;DHT22;7150;53.514;9.988;2023-08-24T14:23:10;25.00;99.90
14140;DHT22;7150;53.514;9.988;2023-08-24T14:25:36;25.00;99.90
14140;DHT22;7150;53.514;9.988;2023-08-24T14:28:01;25.10;99.90
14140;DHT22;7150;53.514;9.988;2023-08-24T14:30:27;25.10;99.90
14140;DHT22;7150;53.514;9.988;2023-08-24T14:32:52;25.20;99.90
14140;DHT22;7150;53.514;9.988;2023-08-24T14:35:18;25.20;99.90
14140;DHT22;7150;53.514;9.988;2023-08-24T14:37:43;25.20;99.90
14140;DHT22;7150;53.514;9.988;2023-08-24T14:40:09;25.30;99.90
14140;DHT22;7150;53.514;9.988;2023-08-24T14:42:35;25.30;99.90
14140;DHT22;7150;53.514;9.988;2023-08-24T14:45:01;25.20;99.90
14140;DHT22;7150;53.514;9.988;2023-08-24T14:47:26;25.30;99.90
14140;DHT22;7150;53.514;9.988;2023-08-24T14:49:52;25.20;99.90
14140;DHT22;7150;53.514;9.988;2023-08-24T14:52:18;25.20;99.90
14140;DHT22;7150;53.514;9.988;2023-08-24T14:54:43;25.20;99.90
14140;DHT22;7150;53.514;9.988;2023-08-24T14:57:10;25.20;99.90
14140;DHT22;7150;53.514;9.988;2023-08-24T14:59:35;25.20;99.90
14140;DHT22;7150;53.514;9.988;2023-08-24T15:02:01;25.20;99.90
14140;DHT22;7150;53.514;9.988;2023-08-24T15:04:27;25.10;99.90
14140;DHT22;7150;53.514;9.988;2023-08-24T15:06:52;25.20;99.90
14140;DHT22;7150;53.514;9.988;2023-08-24T15:09:18;25.10;99.90
14140;DHT22;7150;53.514;9.988;2023-08-24T15:11:44;25.10;99.90
14140;DHT22;7150;53.514;9.988;2023-08-24T15:14:09;25.10;99.90
14140;DHT22;7150;53.514;9.988;2023-08-24T15:16:35;25.10;99.90
14140;DHT22;7150;53.514;9.988;2023-08-24T15:19:00;25.10;99.90
14140;DHT22;7150;53.514;9.988;2023-08-24T15:21:27;25.10;99.90
14140;DHT22;7150;53.514;9.988;2023-08-24T15:23:53;25.10;99.90
14140;DHT22;7150;53.514;9.988;2023-08-24T15:26:19;25.20;99.90
14140;DHT22;7150;53.514;9.988;2023-08-24T15:29:13;25.20;99.90
14140;DHT22;7150;53.514;9.988;2023-08-24T15:31:41;25.20;99.90
14140;DHT22;7150;53.514;9.988;2023-08-24T15:34:07;25.10;99.90
14140;DHT22;7150;53.514;9.988;2023-08-24T15:36:33;25.10;99.90
14140;DHT22;7150;53.514;9.988;2023-08-24T15:38:58;25.00;99.90
14140;DHT22;7150;53.514;9.988;2023-08-24T15:41:25;25.00;99.90
14140;DHT22;7150;53.514;9.988;2023-08-24T15:43:50;25.00;99.90
14140;DHT22;7150;53.514;9.988;2023-08-24T15:46:16;24.90;99.90
14140;DHT22;7150;53.514;9.988;2023-08-24T15:48:41;24.90;99.90
14140;DHT22;7150;53.514;9.988;2023-08-24T15:51:08;24.90;99.90
14140;DHT22;7150;53.514;9.988;2023-08-24T15:53:33;24.90;99.90
14140;DHT22;7150;53.514;9.988;2023-08-24T15:55:59;24.80;99.90